Milwaukee, WI

9:09 PM CST on January 21, 2017 (GMT -0600)
Milwaukee | | Change Station
Active Advisory: Marine Fog Advisory

Elev 722 ft 42.95 °N, 87.90 °W | Updated 17 minutes ago

Overcast
Overcast
45 °F
Feels Like 41 °F
N
8
Wind Variable Wind from West

Today
High -- | Low -- °F
--% Chance of Precip.
Yesterday
High -- | Low -- °F
Precip. -- in
Pressure 29.58 in
Visibility 7.0 miles
Clouds Overcast 800 ft
Windchill 41 °F
Dew Point 41 °F
Humidity 86%
Rainfall 0.03 in
Snow Depth Not available.
7:16 AM 4:50 PM
Waning Crescent, 30% visible
METAR KMKE 220252Z 26007KT 7SM OVC008 07/05 A2957 RMK AO2 SLP017 T00720050 51019 $
Pressure 29.58 in
Visibility 7.0 miles
Clouds Overcast 800 ft
Windchill 41 °F
Dew Point 41 °F
Humidity 86%
Rainfall 0.03 in
Snow Depth Not available.
7:16 AM 4:50 PM
Waning Crescent, 30% visible
METAR KMKE 220252Z 26007KT 7SM OVC008 07/05 A2957 RMK AO2 SLP017 T00720050 51019 $

Get Your Daily Forecast Email!

Thanks for signing up!

Be on the lookout for a verification email in your inbox.

You'll start receiving the daily forecast at 8 AM.

×

10-Day Weather Forecast

Almanac

Astronomy

Jan. 21, 2017 Rise Set
Actual Time
Civil Twilight
Nautical Twilight
Astronomical Twilight
Moon
Length of Visible Light
Length of Day
Tomorrow will be .
, % of the Moon is Illuminated

Today's Extremes

State Highs State Lows

Community

WunderPhotos

Upload Photos

1,962,540 photos uploaded!

WunderBlog® & News

Nearby

Air Quality

  Air Quality AQ Index Pollutant
Not available.

Snow Depth

Station Depth Elevation

Earthquake Activity

City Distance Mag. Time & Date
Minimum magnitude displayed is 2.5.

Coastal Water Temperatures

Place Temperature

Stations

Nearby Weather Stations

Station Location Temp. Windchill Dew Point Humidity Wind Precip. Elev Updated Type
                   

Watches & Warnings

Marine Fog Advisory
Issued: 8:44 PM CST Jan. 21, 2017 – National Weather Service

... Dense fog advisory in effect until noon CST Sunday...

The National Weather Service in Milwaukee/Sullivan has issued a
dense fog advisory... which is in effect until noon CST Sunday.

* Visibility: areas of dense fog will redevelop... resulting in
visibilities of one mile or less.

Precautionary/preparedness actions...

A dense fog advisory means visibilities will frequently be
reduced to less than one mile. Inexperienced mariners...
especially those operating smaller vessels should avoid
navigating in these conditions.